Pagrindinis puslapis
METAR-TAF:

METAR-TAF

Oro uostai :

Perry Lefors Field

Pampa, Teksasas, Jungtinės Amerikos Valstijos

platuma: 35-36-46N, ilguma: 100-59-46W, Aukštis: 989 m

Dabartinis oras

Ataskaita buvo paskelbta 19 minutes, ne 16:55 UTC
Vėjas 6 kt iš Rytų/Pietryčių
Temperatūra 12°C
Drėgmė 76%
Slėgis 1021 hPa
Matomumas: 16.1 km
Su prošvaistėmis ne aukštis 700 ft

METAR: KPPA 311655Z AUTO 11006KT 10SM BKN007 12/08 A3015 RMK AO2 T01180081

Laikas: 12:14 (17:14 UTC)


TAF: trūkstamas

Orai ataskaitas ir orų prognozės (METAR, TAF).

turimą stotys yra geltonos ir raudonos taškus žemėlapyje.

Perkelti pele per norėdami pamatyti stoties vardą.

Tada spustelėkite, norėdami matyti oro stebėjimo ir prognozės.

Norėdami pakeisti žemėlapį: spustelėkite ant žalios mygtukų su juodo kryžiaus žemyn,; žalią mygtuką su brūkšneliu, jei norite nutolinti; arba žalių rodyklių gretimoms žemėlapius.


METAR-TAF: